Time;durP1;ratioP1;P1;durP2;ratioP2;P2;SDS_P1;SDS_P2;PMS_P1;PMS_P2;Temp;Humidity;BMP_temperature;BMP_pressure;BME280_temperature;BME280_humidity;BME280_pressure;Samples;Min_cycle;Max_cycle;Signal;HPM_P1;HPM_P2
2023/08/02 00:01:36;;;;;;;0.52;0.52;;;;;;;;;;5061653;28;20028;-77
2023/08/02 00:04:02;;;;;;;0.85;0.50;;;;;;;;;;5053767;28;20075;-77
2023/08/02 00:06:28;;;;;;;0.65;0.63;;;;;;;;;;5061880;28;20029;-77
2023/08/02 00:08:54;;;;;;;0.68;0.50;;;;;;;;;;5057595;28;20085;-77
2023/08/02 00:11:23;;;;;;;0.60;0.60;;;;;;;;;;5058590;28;20029;-77
2023/08/02 00:13:49;;;;;;;0.57;0.57;;;;;;;;;;5059235;28;20025;-77
2023/08/02 00:16:15;;;;;;;2.67;0.70;;;;;;;;;;5059544;28;20032;-77
2023/08/02 00:18:41;;;;;;;0.55;0.55;;;;;;;;;;5052227;28;20029;-77
2023/08/02 00:21:07;;;;;;;0.93;0.80;;;;;;;;;;5060819;28;20049;-77
2023/08/02 00:23:33;;;;;;;3.38;0.80;;;;;;;;;;5058754;28;20032;-77
2023/08/02 00:25:59;;;;;;;1.80;0.60;;;;;;;;;;5063273;28;20036;-78
2023/08/02 00:28:25;;;;;;;0.70;0.70;;;;;;;;;;5059369;28;20449;-77
2023/08/02 00:30:51;;;;;;;1.25;0.50;;;;;;;;;;5064008;28;20041;-77
2023/08/02 00:33:17;;;;;;;0.50;0.50;;;;;;;;;;5052921;28;20041;-77
2023/08/02 00:35:48;;;;;;;0.50;0.50;;;;;;;;;;5062081;28;20067;-77
2023/08/02 00:38:14;;;;;;;0.60;0.60;;;;;;;;;;5056954;28;20029;-77
2023/08/02 00:40:40;;;;;;;0.90;0.60;;;;;;;;;;5062223;28;20040;-77
2023/08/02 00:43:06;;;;;;;0.43;0.43;;;;;;;;;;5059550;28;20052;-77
2023/08/02 00:45:32;;;;;;;1.13;0.68;;;;;;;;;;5052338;28;20108;-77
2023/08/02 00:47:58;;;;;;;0.60;0.60;;;;;;;;;;5052690;28;20044;-78
2023/08/02 00:50:26;;;;;;;1.65;0.60;;;;;;;;;;5061354;28;20087;-77
2023/08/02 00:52:52;;;;;;;0.47;0.47;;;;;;;;;;5061218;28;20102;-77
2023/08/02 00:55:18;;;;;;;0.70;0.60;;;;;;;;;;5058211;28;20483;-77
2023/08/02 00:57:44;;;;;;;0.80;0.80;;;;;;;;;;5061723;28;20494;-77
2023/08/02 01:00:10;;;;;;;0.40;0.40;;;;;;;;;;5053208;28;20029;-77
2023/08/02 01:02:36;;;;;;;0.73;0.68;;;;;;;;;;5052370;28;20094;-77
2023/08/02 01:05:03;;;;;;;0.63;0.50;;;;;;;;;;5072178;28;20430;-78
2023/08/02 01:07:29;;;;;;;1.77;0.75;;;;;;;;;;5060259;28;20082;-77
2023/08/02 01:10:01;;;;;;;0.70;0.70;;;;;;;;;;5068302;28;20032;-78
2023/08/02 01:12:29;;;;;;;1.45;0.85;;;;;;;;;;5051015;28;20079;-77
2023/08/02 01:14:56;;;;;;;0.70;0.57;;;;;;;;;;5056513;28;20037;-78
2023/08/02 01:17:24;;;;;;;0.98;0.70;;;;;;;;;;5057131;28;20029;-77
2023/08/02 01:19:51;;;;;;;0.75;0.63;;;;;;;;;;5058051;28;20060;-77
2023/08/02 01:22:17;;;;;;;0.70;0.55;;;;;;;;;;5068541;28;20066;-77
2023/08/02 01:24:43;;;;;;;0.60;0.60;;;;;;;;;;5050350;28;20357;-77
2023/08/02 01:27:10;;;;;;;0.57;0.57;;;;;;;;;;5051448;28;20142;-77
2023/08/02 01:29:42;;;;;;;0.80;0.80;;;;;;;;;;5049067;28;20542;-77
2023/08/02 01:32:08;;;;;;;3.55;0.73;;;;;;;;;;5064305;28;20090;-78
2023/08/02 01:34:35;;;;;;;1.33;0.85;;;;;;;;;;5056596;28;20037;-77
2023/08/02 01:37:01;;;;;;;1.25;0.70;;;;;;;;;;5057473;28;20524;-77
2023/08/02 01:39:27;;;;;;;0.57;0.57;;;;;;;;;;5056434;28;20036;-77
2023/08/02 01:41:53;;;;;;;0.70;0.50;;;;;;;;;;5063631;28;20071;-78
2023/08/02 01:44:19;;;;;;;0.45;0.45;;;;;;;;;;5057087;28;20029;-77
2023/08/02 01:46:44;;;;;;;0.57;0.57;;;;;;;;;;5051522;28;20095;-78
2023/08/02 01:49:10;;;;;;;1.05;0.65;;;;;;;;;;5051009;28;20021;-77
2023/08/02 01:51:36;;;;;;;0.80;0.80;;;;;;;;;;5058786;28;20027;-77
2023/08/02 01:54:02;;;;;;;0.85;0.70;;;;;;;;;;5073584;28;20040;-77
2023/08/02 01:56:28;;;;;;;0.68;0.68;;;;;;;;;;5067239;28;20036;-78
2023/08/02 01:58:54;;;;;;;0.45;0.43;;;;;;;;;;5066023;28;20102;-77
2023/08/02 02:01:20;;;;;;;0.82;0.60;;;;;;;;;;5059567;28;20031;-77
2023/08/02 02:03:58;;;;;;;0.50;0.50;;;;;;;;;;5066223;28;20025;-77
2023/08/02 02:06:24;;;;;;;0.80;0.50;;;;;;;;;;5072674;28;20056;-77
2023/08/02 02:08:50;;;;;;;0.88;0.77;;;;;;;;;;5063822;28;20052;-77
2023/08/02 02:11:16;;;;;;;1.63;0.60;;;;;;;;;;5048413;28;20033;-77
2023/08/02 02:13:42;;;;;;;0.60;0.60;;;;;;;;;;5066538;28;20043;-77
2023/08/02 02:16:08;;;;;;;0.57;0.57;;;;;;;;;;5066986;28;20036;-77
2023/08/02 02:18:34;;;;;;;1.35;1.20;;;;;;;;;;5056442;28;20124;-78
2023/08/02 02:21:00;;;;;;;0.57;0.57;;;;;;;;;;5053482;28;20057;-77
2023/08/02 02:23:26;;;;;;;0.52;0.50;;;;;;;;;;5065573;28;20021;-77
2023/08/02 02:25:52;;;;;;;1.45;1.05;;;;;;;;;;5061419;28;20128;-77
2023/08/02 02:28:20;;;;;;;0.95;0.73;;;;;;;;;;5056725;28;20444;-78
2023/08/02 02:30:46;;;;;;;0.50;0.50;;;;;;;;;;5056602;28;20245;-77
2023/08/02 02:33:12;;;;;;;0.63;0.60;;;;;;;;;;5066120;28;20689;-77
2023/08/02 02:35:38;;;;;;;0.60;0.60;;;;;;;;;;5058359;28;20029;-77
2023/08/02 02:38:04;;;;;;;0.65;0.63;;;;;;;;;;5061172;28;20467;-77
2023/08/02 02:40:30;;;;;;;0.85;0.65;;;;;;;;;;5059973;28;20040;-77
2023/08/02 02:42:56;;;;;;;0.77;0.55;;;;;;;;;;5059583;28;20029;-78
2023/08/02 02:45:22;;;;;;;0.60;0.60;;;;;;;;;;5066476;28;20024;-77
2023/08/02 02:47:48;;;;;;;0.65;0.57;;;;;;;;;;5066237;28;20025;-77
2023/08/02 02:50:14;;;;;;;1.30;0.65;;;;;;;;;;5061897;28;20104;-77
2023/08/02 02:52:41;;;;;;;0.75;0.52;;;;;;;;;;5060498;28;20021;-78
2023/08/02 02:55:07;;;;;;;0.82;0.77;;;;;;;;;;5062752;28;20078;-78
2023/08/02 02:57:33;;;;;;;0.60;0.60;;;;;;;;;;5062917;28;20033;-78
2023/08/02 02:59:59;;;;;;;0.60;0.60;;;;;;;;;;5054272;28;20045;-78
2023/08/02 03:02:25;;;;;;;0.60;0.60;;;;;;;;;;5053242;28;20033;-78
2023/08/02 03:04:51;;;;;;;0.55;0.55;;;;;;;;;;5057119;28;20086;-78
2023/08/02 03:07:17;;;;;;;0.77;0.70;;;;;;;;;;5062813;28;20029;-77
2023/08/02 03:09:43;;;;;;;0.57;0.57;;;;;;;;;;5062902;28;20025;-78
2023/08/02 03:12:09;;;;;;;0.70;0.65;;;;;;;;;;5061232;28;20040;-78
2023/08/02 03:14:35;;;;;;;0.60;0.60;;;;;;;;;;5068731;28;20032;-77
2023/08/02 03:17:01;;;;;;;1.75;0.70;;;;;;;;;;5071019;28;20028;-77
2023/08/02 03:19:35;;;;;;;0.52;0.50;;;;;;;;;;5059199;28;20052;-77
2023/08/02 03:22:01;;;;;;;0.60;0.60;;;;;;;;;;5052786;28;20757;-78
2023/08/02 03:24:27;;;;;;;0.60;0.60;;;;;;;;;;5056831;28;20028;-77
2023/08/02 03:26:53;;;;;;;0.50;0.50;;;;;;;;;;5061442;28;20025;-78
2023/08/02 03:29:19;;;;;;;0.68;0.68;;;;;;;;;;5058713;28;20032;-78
2023/08/02 03:31:45;;;;;;;0.68;0.68;;;;;;;;;;5052255;28;20522;-78
2023/08/02 03:34:11;;;;;;;0.98;0.60;;;;;;;;;;5062262;28;20493;-77
2023/08/02 03:36:37;;;;;;;0.50;0.50;;;;;;;;;;5059899;28;20438;-77
2023/08/02 03:39:05;;;;;;;0.68;0.60;;;;;;;;;;5053093;28;20040;-77
2023/08/02 03:41:32;;;;;;;0.50;0.50;;;;;;;;;;5059595;28;20221;-78
2023/08/02 03:43:58;;;;;;;0.75;0.70;;;;;;;;;;5057053;28;20040;-78
2023/08/02 03:46:24;;;;;;;0.73;0.63;;;;;;;;;;5053325;28;20025;-78
2023/08/02 03:48:50;;;;;;;0.45;0.43;;;;;;;;;;5065785;28;20283;-78
2023/08/02 03:51:16;;;;;;;1.23;1.08;;;;;;;;;;5055875;28;20102;-78
2023/08/02 03:53:42;;;;;;;0.68;0.50;;;;;;;;;;5080894;28;20485;-77
2023/08/02 03:56:07;;;;;;;0.40;0.40;;;;;;;;;;5065632;28;20086;-78
2023/08/02 03:58:33;;;;;;;0.40;0.40;;;;;;;;;;5060757;28;20094;-78
2023/08/02 04:00:59;;;;;;;1.42;0.50;;;;;;;;;;5051864;28;20033;-78
2023/08/02 04:03:25;;;;;;;1.10;0.70;;;;;;;;;;5057378;28;20044;-78
2023/08/02 04:05:54;;;;;;;1.80;0.75;;;;;;;;;;5053359;28;20041;-78
2023/08/02 04:08:20;;;;;;;0.93;0.70;;;;;;;;;;5057106;28;20024;-77
2023/08/02 04:10:46;;;;;;;1.42;0.70;;;;;;;;;;5075258;28;20086;-78
2023/08/02 04:13:12;;;;;;;0.68;0.68;;;;;;;;;;5059315;28;20033;-78
2023/08/02 04:15:38;;;;;;;0.75;0.65;;;;;;;;;;5060097;28;20033;-78
2023/08/02 04:18:04;;;;;;;0.55;0.55;;;;;;;;;;5067621;28;20070;-78
2023/08/02 04:20:30;;;;;;;0.77;0.70;;;;;;;;;;5054955;28;20566;-78
2023/08/02 04:22:56;;;;;;;0.95;0.88;;;;;;;;;;5059956;28;20108;-78
2023/08/02 04:25:23;;;;;;;1.00;0.57;;;;;;;;;;5071064;28;20035;-78
2023/08/02 04:27:49;;;;;;;1.88;0.70;;;;;;;;;;5060960;28;20048;-78
2023/08/02 04:30:14;;;;;;;0.80;0.80;;;;;;;;;;5061122;28;20032;-78
2023/08/02 04:32:40;;;;;;;1.48;0.80;;;;;;;;;;5054638;28;20036;-80
2023/08/02 04:35:07;;;;;;;0.73;0.68;;;;;;;;;;5062420;28;20190;-79
2023/08/02 04:37:33;;;;;;;2.97;0.90;;;;;;;;;;5067753;28;20121;-81
2023/08/02 04:39:59;;;;;;;0.75;0.73;;;;;;;;;;5056407;28;20025;-81
2023/08/02 04:42:27;;;;;;;0.60;0.60;;;;;;;;;;5064558;28;20112;-80
2023/08/02 04:44:53;;;;;;;0.60;0.50;;;;;;;;;;5059766;28;20033;-80
2023/08/02 04:47:20;;;;;;;0.60;0.60;;;;;;;;;;5055481;28;20021;-80
2023/08/02 04:49:46;;;;;;;0.82;0.73;;;;;;;;;;5059136;28;20091;-80
2023/08/02 04:52:12;;;;;;;0.95;0.93;;;;;;;;;;5062296;28;20032;-80
2023/08/02 04:54:38;;;;;;;2.40;0.60;;;;;;;;;;5058160;28;20498;-79
2023/08/02 04:57:04;;;;;;;0.80;0.80;;;;;;;;;;5055945;28;20055;-76
2023/08/02 04:59:30;;;;;;;0.82;0.82;;;;;;;;;;5058959;28;20591;-77
2023/08/02 05:01:55;;;;;;;0.80;0.80;;;;;;;;;;5052041;28;20037;-78
2023/08/02 05:04:21;;;;;;;1.42;0.90;;;;;;;;;;5056685;28;20037;-76
2023/08/02 05:06:47;;;;;;;5.20;0.70;;;;;;;;;;5049041;28;20025;-77
2023/08/02 05:09:13;;;;;;;6.20;2.90;;;;;;;;;;5051057;28;20021;-80
2023/08/02 05:11:42;;;;;;;1.63;1.05;;;;;;;;;;5049121;28;20549;-77
2023/08/02 05:14:08;;;;;;;2.30;1.35;;;;;;;;;;5050229;28;20162;-77
2023/08/02 05:16:36;;;;;;;6.40;2.83;;;;;;;;;;5064723;28;20388;-77
2023/08/02 05:19:03;;;;;;;3.30;2.08;;;;;;;;;;5049381;28;20040;-77
2023/08/02 05:21:33;;;;;;;4.65;3.03;;;;;;;;;;5049989;28;20541;-78
2023/08/02 05:23:59;;;;;;;2.55;1.83;;;;;;;;;;5049011;28;20025;-79
2023/08/02 05:26:25;;;;;;;3.28;2.10;;;;;;;;;;5053300;28;20086;-80
2023/08/02 05:28:57;;;;;;;3.85;2.65;;;;;;;;;;5060794;28;20078;-76
2023/08/02 05:31:23;;;;;;;5.32;3.13;;;;;;;;;;5056181;28;20144;-76
2023/08/02 05:33:48;;;;;;;5.70;3.60;;;;;;;;;;5055840;28;20615;-73
2023/08/02 05:36:15;;;;;;;6.22;2.78;;;;;;;;;;5048577;28;20110;-75
2023/08/02 05:38:50;;;;;;;5.53;2.90;;;;;;;;;;5053325;28;20107;-75
2023/08/02 05:41:16;;;;;;;4.63;2.17;;;;;;;;;;5057002;28;20021;-75
2023/08/02 05:43:44;;;;;;;2.88;2.20;;;;;;;;;;5056780;28;20032;-91
2023/08/02 05:46:11;;;;;;;3.10;2.28;;;;;;;;;;5059985;28;20036;-93
2023/08/02 05:48:36;;;;;;;2.88;2.05;;;;;;;;;;5061624;28;20028;-91
2023/08/02 05:51:02;;;;;;;5.45;2.60;;;;;;;;;;5055435;28;20051;-90
2023/08/02 05:53:28;;;;;;;3.13;2.10;;;;;;;;;;5063174;28;20025;-91
2023/08/02 05:55:56;;;;;;;2.90;2.47;;;;;;;;;;5052044;28;20494;-92
2023/08/02 05:58:22;;;;;;;3.97;2.33;;;;;;;;;;5050927;28;20056;-89
2023/08/02 06:00:48;;;;;;;2.83;2.40;;;;;;;;;;5056449;28;20475;-92
2023/08/02 06:03:13;;;;;;;5.47;2.55;;;;;;;;;;5057228;28;20031;-90
2023/08/02 06:05:39;;;;;;;4.65;2.65;;;;;;;;;;5052933;28;20025;-92
2023/08/02 06:08:05;;;;;;;5.70;2.15;;;;;;;;;;5068255;28;20035;-90
2023/08/02 06:10:31;;;;;;;2.35;2.00;;;;;;;;;;5056699;28;20033;-91
2023/08/02 06:12:57;;;;;;;4.63;2.15;;;;;;;;;;5059085;28;20028;-90
2023/08/02 06:15:23;;;;;;;6.57;2.58;;;;;;;;;;5065168;28;20078;-93
2023/08/02 06:17:49;;;;;;;3.35;2.45;;;;;;;;;;5051099;28;20029;-90
2023/08/02 06:20:15;;;;;;;2.30;2.00;;;;;;;;;;5062728;28;20454;-91
2023/08/02 06:22:41;;;;;;;4.90;2.00;;;;;;;;;;5063857;28;20067;-91
2023/08/02 06:25:08;;;;;;;3.40;2.28;;;;;;;;;;5057974;28;20016;-92
2023/08/02 06:27:34;;;;;;;5.50;2.10;;;;;;;;;;5059261;28;20540;-92
2023/08/02 06:30:01;;;;;;;4.70;2.28;;;;;;;;;;5056576;28;20045;-91
2023/08/02 06:32:27;;;;;;;3.40;2.05;;;;;;;;;;5052193;28;20082;-92
2023/08/02 06:34:53;;;;;;;2.78;2.08;;;;;;;;;;5051678;28;20028;-92
2023/08/02 06:37:19;;;;;;;4.75;2.30;;;;;;;;;;5064206;28;20025;-90
2023/08/02 06:39:48;;;;;;;3.38;2.58;;;;;;;;;;5055362;28;20020;-92
2023/08/02 06:42:20;;;;;;;2.72;2.05;;;;;;;;;;5056172;28;20116;-93
2023/08/02 06:44:46;;;;;;;5.32;2.50;;;;;;;;;;5059412;28;20046;-91
2023/08/02 06:47:12;;;;;;;4.47;2.13;;;;;;;;;;5056882;28;20021;-92
2023/08/02 06:49:38;;;;;;;4.05;2.55;;;;;;;;;;5054779;28;20391;-92
2023/08/02 06:52:05;;;;;;;2.42;2.10;;;;;;;;;;5061499;28;20714;-92
2023/08/02 06:54:31;;;;;;;3.63;2.10;;;;;;;;;;5058366;28;20034;-92
2023/08/02 06:56:57;;;;;;;3.70;2.22;;;;;;;;;;5056795;28;20029;-91
2023/08/02 06:59:23;;;;;;;3.50;1.90;;;;;;;;;;5058415;28;20024;-92
2023/08/02 07:01:49;;;;;;;5.78;2.28;;;;;;;;;;5066468;28;20052;-92
2023/08/02 07:04:15;;;;;;;3.47;1.95;;;;;;;;;;5059612;28;20526;-93
2023/08/02 07:06:41;;;;;;;2.83;1.70;;;;;;;;;;5063727;28;20032;-91
2023/08/02 07:09:07;;;;;;;3.30;2.20;;;;;;;;;;5056758;28;20024;-92
2023/08/02 07:11:32;;;;;;;2.83;1.77;;;;;;;;;;5062322;28;20082;-90
2023/08/02 07:13:58;;;;;;;4.50;2.33;;;;;;;;;;5058330;28;20036;-92
2023/08/02 07:16:24;;;;;;;3.08;2.35;;;;;;;;;;5054597;28;20040;-92
2023/08/02 07:18:50;;;;;;;3.38;2.10;;;;;;;;;;5060598;28;20540;-93
2023/08/02 07:21:16;;;;;;;3.08;2.20;;;;;;;;;;5055427;28;20434;-93
2023/08/02 07:23:42;;;;;;;3.38;2.30;;;;;;;;;;5057888;28;20025;-92
2023/08/02 07:26:09;;;;;;;2.80;2.05;;;;;;;;;;5064077;28;20467;-93
2023/08/02 07:28:35;;;;;;;3.38;2.22;;;;;;;;;;5052660;28;20055;-93
2023/08/02 07:31:08;;;;;;;2.72;2.08;;;;;;;;;;5056238;28;20383;-92
2023/08/02 07:33:34;;;;;;;2.78;2.30;;;;;;;;;;5068156;28;20104;-92
2023/08/02 07:36:00;;;;;;;2.17;1.80;;;;;;;;;;5057214;28;20150;-91
2023/08/02 07:38:26;;;;;;;3.20;2.05;;;;;;;;;;5057658;28;20036;-92
2023/08/02 07:40:52;;;;;;;2.38;1.95;;;;;;;;;;5067440;28;20037;-93
2023/08/02 07:43:18;;;;;;;2.47;1.92;;;;;;;;;;5055364;28;20032;-92
2023/08/02 07:45:44;;;;;;;2.67;1.85;;;;;;;;;;5066343;28;20036;-92
2023/08/02 07:48:10;;;;;;;2.63;2.13;;;;;;;;;;5063179;28;20075;-91
2023/08/02 07:50:36;;;;;;;3.20;2.20;;;;;;;;;;5060585;28;20024;-92
2023/08/02 07:53:02;;;;;;;3.05;2.05;;;;;;;;;;5064472;28;20024;-91
2023/08/02 07:55:28;;;;;;;1.98;1.63;;;;;;;;;;5067444;28;20048;-93
2023/08/02 07:57:54;;;;;;;3.13;2.13;;;;;;;;;;5055591;28;20028;-92
2023/08/02 08:00:20;;;;;;;2.97;1.88;;;;;;;;;;5059990;28;20491;-92
2023/08/02 08:02:46;;;;;;;2.58;1.90;;;;;;;;;;5064714;28;20033;-91
2023/08/02 08:05:12;;;;;;;1.95;1.75;;;;;;;;;;5055989;28;20017;-91
2023/08/02 08:07:38;;;;;;;3.33;2.47;;;;;;;;;;5062489;28;20017;-92
2023/08/02 08:10:04;;;;;;;4.28;2.17;;;;;;;;;;5066172;28;20395;-92
2023/08/02 08:12:30;;;;;;;3.50;2.10;;;;;;;;;;5062409;28;20028;-93
2023/08/02 08:14:56;;;;;;;4.40;1.80;;;;;;;;;;5057777;28;20373;-95
2023/08/02 08:17:22;;;;;;;2.65;1.52;;;;;;;;;;5057896;28;20026;-92
2023/08/02 08:19:48;;;;;;;2.88;2.42;;;;;;;;;;5060253;28;20063;-94
2023/08/02 08:22:15;;;;;;;2.10;1.83;;;;;;;;;;5061253;28;20041;-93
2023/08/02 08:24:41;;;;;;;4.63;2.47;;;;;;;;;;5067144;28;20033;-92
2023/08/02 08:27:07;;;;;;;3.10;2.20;;;;;;;;;;5059504;28;20029;-93
2023/08/02 08:29:33;;;;;;;2.28;1.83;;;;;;;;;;5067617;28;20078;-92
2023/08/02 08:31:59;;;;;;;2.15;1.92;;;;;;;;;;5060274;28;20076;-91
2023/08/02 08:34:25;;;;;;;2.70;1.80;;;;;;;;;;5059187;28;20460;-92
2023/08/02 08:36:51;;;;;;;2.95;1.90;;;;;;;;;;5073076;28;20028;-91
2023/08/02 08:39:18;;;;;;;2.08;1.70;;;;;;;;;;5061323;28;20028;-91
2023/08/02 08:41:44;;;;;;;3.35;2.10;;;;;;;;;;5055691;28;20161;-92
2023/08/02 08:44:10;;;;;;;2.30;1.92;;;;;;;;;;5058851;28;20043;-94
2023/08/02 08:46:36;;;;;;;2.15;1.80;;;;;;;;;;5056515;28;20087;-92
2023/08/02 08:49:03;;;;;;;3.28;2.05;;;;;;;;;;5066381;28;20111;-93
2023/08/02 08:51:33;;;;;;;3.28;2.13;;;;;;;;;;5052398;28;20055;-91
2023/08/02 08:54:01;;;;;;;2.28;1.92;;;;;;;;;;5056448;28;20032;-91
2023/08/02 08:56:28;;;;;;;2.22;1.52;;;;;;;;;;5063001;28;20032;-91
2023/08/02 08:58:55;;;;;;;2.50;2.00;;;;;;;;;;5053131;28;20490;-93
2023/08/02 09:01:23;;;;;;;2.47;1.92;;;;;;;;;;5062463;28;20032;-93
2023/08/02 09:03:49;;;;;;;4.68;2.30;;;;;;;;;;5056231;28;20119;-91
2023/08/02 09:06:16;;;;;;;2.03;1.77;;;;;;;;;;5054314;28;20024;-91
2023/08/02 09:08:43;;;;;;;2.22;1.60;;;;;;;;;;5064857;28;20025;-92
2023/08/02 09:11:09;;;;;;;3.22;2.20;;;;;;;;;;5063356;28;20021;-92
2023/08/02 09:13:35;;;;;;;3.08;2.17;;;;;;;;;;5053267;28;20625;-93
2023/08/02 09:16:03;;;;;;;2.47;1.70;;;;;;;;;;5058421;28;20044;-92
2023/08/02 09:18:46;;;;;;;2.17;1.80;;;;;;;;;;5058657;28;20029;-93
2023/08/02 09:21:14;;;;;;;2.67;2.10;;;;;;;;;;5057692;28;20041;-93
2023/08/02 09:23:40;;;;;;;1.95;1.73;;;;;;;;;;5052535;28;20017;-91
2023/08/02 09:26:13;;;;;;;1.58;1.48;;;;;;;;;;5054859;28;20021;-91
2023/08/02 09:28:40;;;;;;;2.08;1.65;;;;;;;;;;5061570;28;20112;-93
2023/08/02 09:31:15;;;;;;;2.78;1.88;;;;;;;;;;5061319;28;20040;-92
2023/08/02 09:33:49;;;;;;;5.15;1.63;;;;;;;;;;5052298;28;20037;-92
2023/08/02 09:36:21;;;;;;;2.80;1.95;;;;;;;;;;5065080;28;20028;-92
2023/08/02 09:38:54;;;;;;;2.95;1.90;;;;;;;;;;5052185;28;20080;-91
2023/08/02 09:41:23;;;;;;;2.05;1.60;;;;;;;;;;5052367;28;20063;-92
2023/08/02 09:43:51;;;;;;;2.70;1.67;;;;;;;;;;5064564;28;20047;-92
2023/08/02 09:46:24;;;;;;;2.20;1.75;;;;;;;;;;5067408;28;20033;-91
2023/08/02 09:48:50;;;;;;;3.80;1.67;;;;;;;;;;5058447;28;20025;-91
2023/08/02 09:51:16;;;;;;;2.75;2.00;;;;;;;;;;5063253;28;20535;-91
2023/08/02 09:53:53;;;;;;;2.10;1.73;;;;;;;;;;5065046;28;20059;-91
2023/08/02 09:56:19;;;;;;;3.33;2.33;;;;;;;;;;5052810;28;20031;-92
2023/08/02 09:58:45;;;;;;;2.13;1.85;;;;;;;;;;5057019;28;20499;-94
2023/08/02 10:01:11;;;;;;;2.08;1.65;;;;;;;;;;5062110;28;20029;-91
2023/08/02 10:03:38;;;;;;;1.80;1.65;;;;;;;;;;5065514;28;20047;-90
2023/08/02 10:06:06;;;;;;;3.53;1.70;;;;;;;;;;5051787;28;20078;-91
2023/08/02 10:08:32;;;;;;;2.78;1.80;;;;;;;;;;5053700;28;20025;-92
2023/08/02 10:10:59;;;;;;;2.92;2.10;;;;;;;;;;5062318;28;20055;-91
2023/08/02 10:13:30;;;;;;;2.15;1.70;;;;;;;;;;5062562;28;20036;-92
2023/08/02 10:15:58;;;;;;;2.20;1.80;;;;;;;;;;5068960;28;20064;-93
2023/08/02 10:18:25;;;;;;;2.33;2.00;;;;;;;;;;5066949;28;20040;-91
2023/08/02 10:20:51;;;;;;;2.55;1.77;;;;;;;;;;5050935;28;20153;-91
2023/08/02 10:23:17;;;;;;;2.25;1.77;;;;;;;;;;5055759;28;20022;-91
2023/08/02 10:25:43;;;;;;;2.60;1.67;;;;;;;;;;5058939;28;20025;-90
2023/08/02 10:28:09;;;;;;;2.85;1.63;;;;;;;;;;5068990;28;20104;-88
2023/08/02 10:30:35;;;;;;;2.13;1.90;;;;;;;;;;5070592;28;20094;-91
2023/08/02 10:33:14;;;;;;;1.80;1.60;;;;;;;;;;5055843;28;20059;-90
2023/08/02 10:35:59;;;;;;;2.88;1.95;;;;;;;;;;5065750;28;20017;-88
2023/08/02 10:38:26;;;;;;;3.35;2.00;;;;;;;;;;5059387;28;20048;-88
2023/08/02 10:41:02;;;;;;;2.65;2.03;;;;;;;;;;5063621;28;20043;-90
2023/08/02 10:43:28;;;;;;;2.35;1.60;;;;;;;;;;5059475;28;20518;-89
2023/08/02 10:46:27;;;;;;;2.50;2.00;;;;;;;;;;5052143;28;20033;-91
2023/08/02 10:48:54;;;;;;;3.05;2.00;;;;;;;;;;5048555;28;20360;-88
2023/08/02 10:51:32;;;;;;;3.03;1.70;;;;;;;;;;5057756;28;20025;-89
2023/08/02 10:54:11;;;;;;;4.55;1.83;;;;;;;;;;5057295;28;20029;-91
2023/08/02 10:56:52;;;;;;;3.65;1.58;;;;;;;;;;5058923;28;20025;-92
2023/08/02 10:59:24;;;;;;;1.92;1.70;;;;;;;;;;5058391;28;20115;-92
2023/08/02 11:01:57;;;;;;;2.20;1.85;;;;;;;;;;5054391;28;20926;-90
2023/08/02 11:04:24;;;;;;;2.00;1.63;;;;;;;;;;5066609;28;20032;-91
2023/08/02 11:06:50;;;;;;;2.47;2.00;;;;;;;;;;5060233;28;20028;-90
2023/08/02 11:09:16;;;;;;;3.55;1.73;;;;;;;;;;5064241;28;20112;-90
2023/08/02 11:11:42;;;;;;;1.65;1.48;;;;;;;;;;5067570;28;20025;-90
2023/08/02 11:14:08;;;;;;;3.17;1.90;;;;;;;;;;5055230;28;20032;-91
2023/08/02 11:16:40;;;;;;;1.70;1.60;;;;;;;;;;5065860;28;20619;-91
2023/08/02 11:19:10;;;;;;;2.63;1.90;;;;;;;;;;5069260;28;20822;-88
2023/08/02 11:21:37;;;;;;;1.52;1.40;;;;;;;;;;5060453;28;20057;-90
2023/08/02 11:24:03;;;;;;;2.28;1.55;;;;;;;;;;5065402;28;20116;-90
2023/08/02 11:26:32;;;;;;;1.60;1.50;;;;;;;;;;5059667;28;20090;-91
2023/08/02 11:28:58;;;;;;;3.08;1.67;;;;;;;;;;5061317;28;20025;-88
2023/08/02 11:31:25;;;;;;;1.92;1.42;;;;;;;;;;5064343;28;20250;-91
2023/08/02 11:33:52;;;;;;;2.13;1.63;;;;;;;;;;5054827;28;20036;-92
2023/08/02 11:36:18;;;;;;;1.75;1.58;;;;;;;;;;5066028;28;20051;-91
2023/08/02 11:38:44;;;;;;;1.88;1.50;;;;;;;;;;5066824;28;20028;-91
2023/08/02 11:41:21;;;;;;;2.17;1.50;;;;;;;;;;5068640;28;20028;-90
2023/08/02 11:43:47;;;;;;;1.90;1.50;;;;;;;;;;5053548;28;20053;-91
2023/08/02 11:46:13;;;;;;;2.72;1.42;;;;;;;;;;5053822;28;20021;-90
2023/08/02 11:48:40;;;;;;;1.92;1.42;;;;;;;;;;5067036;28;20424;-90
2023/08/02 11:51:06;;;;;;;1.60;1.50;;;;;;;;;;5060576;28;20481;-91
2023/08/02 11:53:33;;;;;;;1.63;1.52;;;;;;;;;;5057678;28;20067;-88
2023/08/02 11:55:59;;;;;;;2.28;1.70;;;;;;;;;;5058423;28;20078;-91
2023/08/02 11:58:25;;;;;;;3.20;1.75;;;;;;;;;;5066905;28;20028;-90
2023/08/02 12:00:51;;;;;;;1.73;1.60;;;;;;;;;;5072933;28;20067;-90
2023/08/02 12:03:17;;;;;;;1.90;1.23;;;;;;;;;;5060282;28;20017;-90
2023/08/02 12:05:44;;;;;;;1.85;1.70;;;;;;;;;;5053365;28;20391;-91
2023/08/02 12:08:11;;;;;;;3.13;1.80;;;;;;;;;;5062164;28;20017;-92
2023/08/02 12:10:38;;;;;;;2.22;1.80;;;;;;;;;;5060787;28;20028;-91
2023/08/02 12:13:14;;;;;;;2.70;1.92;;;;;;;;;;5072781;28;20035;-91
2023/08/02 12:15:44;;;;;;;1.90;1.42;;;;;;;;;;5062216;28;20025;-89
2023/08/02 12:18:10;;;;;;;1.70;1.40;;;;;;;;;;5064929;28;20025;-90
2023/08/02 12:20:37;;;;;;;1.83;1.60;;;;;;;;;;5062658;28;20049;-89
2023/08/02 12:23:04;;;;;;;1.30;1.20;;;;;;;;;;5052750;28;20079;-91
2023/08/02 12:25:47;;;;;;;2.53;1.80;;;;;;;;;;5052122;28;20025;-89
2023/08/02 12:28:13;;;;;;;1.70;1.40;;;;;;;;;;5069067;28;20056;-90
2023/08/02 12:30:39;;;;;;;21.00;1.85;;;;;;;;;;5060451;28;20029;-91
2023/08/02 12:33:05;;;;;;;1.60;1.45;;;;;;;;;;5065788;28;20025;-91
2023/08/02 12:35:31;;;;;;;3.00;1.52;;;;;;;;;;5064461;28;20502;-92
2023/08/02 12:37:57;;;;;;;1.85;1.70;;;;;;;;;;5060355;28;20387;-91
2023/08/02 12:40:23;;;;;;;2.53;1.65;;;;;;;;;;5056982;28;20021;-90
2023/08/02 12:42:48;;;;;;;1.70;1.48;;;;;;;;;;5054421;28;20509;-90
2023/08/02 12:45:14;;;;;;;1.90;1.67;;;;;;;;;;5064924;28;20566;-91
2023/08/02 12:47:40;;;;;;;1.63;1.52;;;;;;;;;;5058899;28;20024;-92
2023/08/02 12:50:07;;;;;;;1.85;1.40;;;;;;;;;;5060106;28;20031;-92
2023/08/02 12:52:33;;;;;;;1.70;1.60;;;;;;;;;;5063777;28;20484;-93
2023/08/02 12:54:59;;;;;;;2.22;1.45;;;;;;;;;;5065723;28;20025;-90
2023/08/02 12:57:25;;;;;;;1.45;1.25;;;;;;;;;;5056749;28;20642;-91
2023/08/02 12:59:51;;;;;;;2.05;1.33;;;;;;;;;;5064738;28;20044;-90
2023/08/02 13:02:17;;;;;;;1.92;1.33;;;;;;;;;;5053462;28;20379;-90
2023/08/02 13:04:44;;;;;;;1.95;1.60;;;;;;;;;;5067080;28;20498;-89
2023/08/02 13:07:10;;;;;;;1.67;1.20;;;;;;;;;;5057877;28;20605;-90
2023/08/02 13:09:38;;;;;;;1.52;1.42;;;;;;;;;;5071219;28;20025;-90
2023/08/02 13:12:04;;;;;;;3.15;1.65;;;;;;;;;;5058904;28;20021;-90
2023/08/02 13:14:30;;;;;;;2.58;1.40;;;;;;;;;;5061537;28;20552;-89
2023/08/02 13:16:56;;;;;;;1.55;1.45;;;;;;;;;;5062857;28;20032;-89
2023/08/02 13:19:22;;;;;;;1.90;1.42;;;;;;;;;;5054557;28;20029;-91
2023/08/02 13:21:48;;;;;;;1.73;1.50;;;;;;;;;;5059860;28;20040;-90
2023/08/02 13:24:14;;;;;;;3.53;1.52;;;;;;;;;;5059192;28;20028;-92
2023/08/02 13:26:41;;;;;;;2.05;1.70;;;;;;;;;;5064850;28;20025;-90
2023/08/02 13:29:07;;;;;;;2.25;1.52;;;;;;;;;;5055633;28;20031;-90
2023/08/02 13:31:33;;;;;;;1.90;1.60;;;;;;;;;;5058491;28;20028;-91
2023/08/02 13:33:59;;;;;;;1.60;1.38;;;;;;;;;;5059307;28;20029;-92
2023/08/02 13:36:25;;;;;;;1.52;1.30;;;;;;;;;;5051543;28;20051;-91
2023/08/02 13:38:51;;;;;;;2.42;1.70;;;;;;;;;;5052767;28;20033;-92
2023/08/02 13:41:17;;;;;;;2.20;1.48;;;;;;;;;;5064029;28;20096;-92
2023/08/02 13:43:45;;;;;;;1.52;1.20;;;;;;;;;;5064310;28;20027;-91
2023/08/02 13:46:11;;;;;;;4.13;1.70;;;;;;;;;;5053831;28;20025;-92
2023/08/02 13:48:37;;;;;;;1.70;1.52;;;;;;;;;;5064484;28;20028;-91
2023/08/02 13:51:03;;;;;;;2.17;1.58;;;;;;;;;;5058097;28;20035;-91
2023/08/02 13:53:29;;;;;;;2.65;1.40;;;;;;;;;;5058544;28;20029;-92
2023/08/02 13:55:55;;;;;;;1.80;1.45;;;;;;;;;;5066151;28;20118;-92
2023/08/02 13:58:23;;;;;;;1.75;1.30;;;;;;;;;;5058458;28;20495;-91
2023/08/02 14:00:49;;;;;;;2.78;1.63;;;;;;;;;;5060343;28;20471;-92
2023/08/02 14:03:15;;;;;;;1.75;1.38;;;;;;;;;;5058767;28;20028;-93
2023/08/02 14:05:41;;;;;;;1.83;1.50;;;;;;;;;;5071756;28;20032;-90
2023/08/02 14:08:07;;;;;;;1.65;1.30;;;;;;;;;;5055969;28;20054;-91
2023/08/02 14:10:33;;;;;;;2.08;1.55;;;;;;;;;;5057705;28;20017;-92
2023/08/02 14:13:02;;;;;;;1.40;1.20;;;;;;;;;;5066148;28;20079;-90
2023/08/02 14:15:31;;;;;;;1.40;1.30;;;;;;;;;;5058378;28;20071;-91
2023/08/02 14:17:57;;;;;;;1.80;1.48;;;;;;;;;;5056253;28;20025;-91
2023/08/02 14:20:26;;;;;;;1.52;1.40;;;;;;;;;;5064323;28;20750;-93
2023/08/02 14:22:52;;;;;;;2.03;1.30;;;;;;;;;;5050991;28;20025;-92
2023/08/02 14:25:18;;;;;;;1.42;1.33;;;;;;;;;;5051056;28;20029;-91
2023/08/02 14:27:44;;;;;;;1.70;1.52;;;;;;;;;;5058924;28;20028;-92
2023/08/02 14:30:10;;;;;;;2.28;1.73;;;;;;;;;;5055579;28;20020;-90
2023/08/02 14:32:36;;;;;;;1.50;1.30;;;;;;;;;;5056639;28;20090;-92
2023/08/02 14:35:02;;;;;;;1.48;1.38;;;;;;;;;;5051384;28;20119;-91
2023/08/02 14:37:28;;;;;;;2.88;1.77;;;;;;;;;;5066018;28;20032;-91
2023/08/02 14:39:59;;;;;;;2.17;1.40;;;;;;;;;;5054965;28;20032;-92
2023/08/02 14:42:25;;;;;;;1.55;1.30;;;;;;;;;;5061295;28;20025;-91